createdAt,value
2024-02-19T00:00:27.023Z,16.39
2024-02-19T00:01:27.050Z,16.39
2024-02-19T00:02:26.956Z,16.39
2024-02-19T00:03:26.950Z,16.39
2024-02-19T00:04:27.001Z,16.39
2024-02-19T00:05:26.989Z,16.39
2024-02-19T00:06:26.922Z,16.06
2024-02-19T00:07:27.015Z,15.10
2024-02-19T00:08:26.876Z,16.71
2024-02-19T00:09:26.864Z,16.39
2024-02-19T00:10:26.897Z,17.03
2024-02-19T00:11:26.870Z,16.06
2024-02-19T00:12:26.886Z,15.74
2024-02-19T00:13:26.847Z,16.06
2024-02-19T00:14:26.799Z,16.39
2024-02-19T00:15:26.799Z,16.06
2024-02-19T00:16:27.136Z,16.39
2024-02-19T00:17:26.788Z,16.71
2024-02-19T00:18:26.806Z,16.06
2024-02-19T00:19:26.814Z,16.71
2024-02-19T00:20:26.723Z,16.06
2024-02-19T00:21:26.723Z,16.71
2024-02-19T00:22:26.744Z,16.71
2024-02-19T00:23:26.677Z,16.39
2024-02-19T00:24:26.717Z,16.06
2024-02-19T00:25:26.652Z,16.06
2024-02-19T00:26:26.661Z,16.06
2024-02-19T00:27:26.631Z,16.39
2024-02-19T00:28:26.613Z,16.71
2024-02-19T00:29:26.605Z,16.06
2024-02-19T00:30:26.600Z,17.03
2024-02-19T00:31:26.596Z,15.42
2024-02-19T00:32:26.557Z,16.39
2024-02-19T00:33:26.693Z,16.71
2024-02-19T00:34:26.538Z,16.06
2024-02-19T00:35:26.516Z,16.39
2024-02-19T00:36:26.502Z,16.06
2024-02-19T00:37:26.491Z,16.06
2024-02-19T00:38:26.483Z,16.39
2024-02-19T00:39:26.470Z,16.71
2024-02-19T00:40:26.469Z,16.06
2024-02-19T00:41:26.437Z,16.39
2024-02-19T00:42:26.557Z,16.71
2024-02-19T00:43:26.419Z,16.71
2024-02-19T00:44:26.429Z,16.06
2024-02-19T00:45:26.390Z,16.39
2024-02-19T00:46:26.360Z,16.71
2024-02-19T00:47:26.411Z,16.71
2024-02-19T00:48:26.386Z,16.71
2024-02-19T00:49:26.431Z,16.06
2024-02-19T00:50:26.311Z,16.39
2024-02-19T00:51:26.304Z,15.74
2024-02-19T00:52:26.395Z,15.42
2024-02-19T00:53:26.564Z,17.03
2024-02-19T00:54:26.286Z,16.06
2024-02-19T00:55:26.265Z,15.42
2024-02-19T00:56:26.233Z,16.71
2024-02-19T00:57:26.224Z,16.06
2024-02-19T00:58:26.217Z,16.39
2024-02-19T00:59:26.211Z,16.06
2024-02-19T01:00:26.192Z,16.39
2024-02-19T01:01:26.690Z,16.39
2024-02-19T01:02:26.154Z,16.39
2024-02-19T01:03:26.140Z,16.71
2024-02-19T01:04:26.270Z,16.71
2024-02-19T01:05:26.135Z,16.71
2024-02-19T01:06:26.173Z,17.35
2024-02-19T01:07:26.124Z,17.35
2024-02-19T01:08:26.082Z,17.35
2024-02-19T01:09:26.065Z,17.68
2024-02-19T01:10:26.079Z,18.32
2024-02-19T01:11:26.170Z,18.00
2024-02-19T01:12:26.087Z,17.68
2024-02-19T01:13:26.025Z,18.00
2024-02-19T01:14:26.005Z,18.32
2024-02-19T01:15:25.987Z,18.64
2024-02-19T01:16:26.013Z,18.32
2024-02-19T01:17:25.996Z,18.64
2024-02-19T01:18:25.966Z,18.64
2024-02-19T01:19:25.998Z,18.96
2024-02-19T01:20:25.918Z,19.61
2024-02-19T01:21:25.903Z,19.29
2024-02-19T01:22:26.008Z,18.96
2024-02-19T01:23:25.882Z,19.29
2024-02-19T01:24:25.870Z,19.61
2024-02-19T01:25:25.933Z,19.61
2024-02-19T01:26:25.840Z,19.93
2024-02-19T01:27:25.824Z,19.93
2024-02-19T01:28:25.892Z,19.61
2024-02-19T01:29:25.816Z,20.58
2024-02-19T01:30:25.792Z,20.25
2024-02-19T01:31:25.860Z,20.25
2024-02-19T01:32:25.764Z,20.25
2024-02-19T01:33:25.797Z,21.22
2024-02-19T01:34:25.806Z,20.58
2024-02-19T01:35:25.720Z,20.25
2024-02-19T01:36:26.090Z,20.58
2024-02-19T01:37:25.737Z,20.58
2024-02-19T01:38:25.681Z,21.22
2024-02-19T01:39:25.678Z,20.90
2024-02-19T01:40:25.709Z,21.22
2024-02-19T01:41:25.640Z,21.22
2024-02-19T01:42:25.623Z,20.90
2024-02-19T01:43:25.619Z,20.90
2024-02-19T01:44:25.611Z,21.54
2024-02-19T01:45:25.653Z,21.22
2024-02-19T01:46:25.599Z,21.87
2024-02-19T01:47:25.606Z,21.54
2024-02-19T01:48:25.573Z,21.22
2024-02-19T01:49:25.638Z,21.87
2024-02-19T01:50:25.517Z,21.87
2024-02-19T01:51:25.509Z,22.19
2024-02-19T01:52:25.508Z,21.87
2024-02-19T01:53:25.509Z,22.19
2024-02-19T01:54:25.492Z,22.83
2024-02-19T01:55:25.512Z,22.51
2024-02-19T01:56:25.478Z,21.54
2024-02-19T01:57:25.442Z,22.19
2024-02-19T01:58:25.504Z,22.19
2024-02-19T01:59:25.403Z,21.87
2024-02-19T02:00:25.442Z,21.87
2024-02-19T02:01:25.432Z,22.51
2024-02-19T02:02:25.366Z,21.87
2024-02-19T02:03:25.386Z,20.58
2024-02-19T02:04:25.397Z,22.19
2024-02-19T02:05:25.335Z,21.87
2024-02-19T02:06:25.396Z,21.87
2024-02-19T02:07:25.342Z,22.19
2024-02-19T02:08:25.612Z,22.51
2024-02-19T02:09:25.274Z,21.54
2024-02-19T02:10:25.329Z,22.83
2024-02-19T02:11:25.313Z,22.83
2024-02-19T02:12:25.232Z,22.51
2024-02-19T02:13:25.270Z,22.51
2024-02-19T02:14:25.216Z,22.19
2024-02-19T02:15:25.194Z,22.51
2024-02-19T02:16:25.186Z,22.51
2024-02-19T02:17:25.179Z,22.83
2024-02-19T02:18:25.226Z,22.83
2024-02-19T02:19:25.686Z,22.51
2024-02-19T02:20:25.137Z,22.51
2024-02-19T02:21:25.154Z,22.51
2024-02-19T02:22:25.115Z,24.12
2024-02-19T02:23:25.081Z,22.51
2024-02-19T02:24:25.066Z,22.83
2024-02-19T02:25:25.088Z,22.19
2024-02-19T02:26:25.039Z,22.51
2024-02-19T02:27:25.029Z,22.83
2024-02-19T02:28:25.038Z,22.83
2024-02-19T02:29:25.012Z,22.83
2024-02-19T02:30:25.012Z,23.80
2024-02-19T02:31:25.001Z,22.83
2024-02-19T02:32:24.976Z,22.83
2024-02-19T02:33:25.156Z,22.83
2024-02-19T02:34:25.012Z,22.51
2024-02-19T02:35:25.116Z,22.83
2024-02-19T02:36:24.931Z,22.83
2024-02-19T02:37:24.960Z,22.83
2024-02-19T02:38:24.883Z,22.83
2024-02-19T02:39:24.876Z,23.15
2024-02-19T02:40:24.904Z,23.80
2024-02-19T02:41:24.865Z,23.15
2024-02-19T02:42:25.134Z,22.51
2024-02-19T02:43:24.825Z,22.83
2024-02-19T02:44:24.841Z,23.15
2024-02-19T02:45:24.788Z,22.83
2024-02-19T02:46:24.906Z,23.15
2024-02-19T02:47:24.778Z,22.83
2024-02-19T02:48:24.920Z,22.83
2024-02-19T02:49:24.899Z,22.51
2024-02-19T02:50:24.767Z,22.51
2024-02-19T02:51:24.754Z,22.83
2024-02-19T02:52:24.809Z,23.15
2024-02-19T02:53:24.764Z,22.51
2024-02-19T02:54:24.680Z,23.15
2024-02-19T02:55:24.848Z,23.15
2024-02-19T02:56:24.715Z,23.48
2024-02-19T02:57:24.709Z,22.51
2024-02-19T02:58:24.780Z,23.15
2024-02-19T02:59:24.621Z,22.83
2024-02-19T03:00:24.601Z,23.48
2024-02-19T03:01:24.699Z,22.83
2024-02-19T03:02:24.563Z,23.15
2024-02-19T03:03:24.616Z,22.83
2024-02-19T03:04:24.655Z,23.15
2024-02-19T03:05:24.544Z,22.51
2024-02-19T03:06:24.567Z,22.83
2024-02-19T03:07:24.630Z,23.15
2024-02-19T03:08:24.513Z,23.48
2024-02-19T03:09:24.473Z,21.54
2024-02-19T03:10:24.545Z,23.48
2024-02-19T03:11:24.487Z,22.83
2024-02-19T03:12:24.442Z,22.83
2024-02-19T03:13:24.473Z,22.83
2024-02-19T03:14:24.422Z,22.83
2024-02-19T03:15:24.395Z,22.83
2024-02-19T03:16:24.439Z,23.15
2024-02-19T03:17:24.388Z,22.83
2024-02-19T03:18:24.375Z,23.15
2024-02-19T03:19:24.385Z,22.83
2024-02-19T03:20:24.337Z,22.19
2024-02-19T03:21:24.330Z,22.83
2024-02-19T03:22:24.389Z,22.51
2024-02-19T03:23:24.288Z,22.83
2024-02-19T03:24:24.273Z,23.48
2024-02-19T03:25:24.351Z,23.48
2024-02-19T03:26:34.519Z,22.83
2024-02-19T03:27:24.246Z,22.83
2024-02-19T03:28:24.239Z,22.83
2024-02-19T03:29:24.213Z,23.15
2024-02-19T03:30:24.197Z,22.83
2024-02-19T03:31:24.253Z,23.48
2024-02-19T03:32:24.644Z,22.83
2024-02-19T03:33:24.220Z,22.83
2024-02-19T03:34:24.215Z,23.15
2024-02-19T03:35:24.135Z,23.15
2024-02-19T03:36:24.111Z,23.48
2024-02-19T03:37:24.345Z,23.15
2024-02-19T03:38:24.162Z,23.48
2024-02-19T03:39:24.078Z,23.48
2024-02-19T03:40:24.123Z,22.83
2024-02-19T03:41:24.042Z,23.15
2024-02-19T03:42:24.060Z,23.15
2024-02-19T03:43:24.210Z,23.15
2024-02-19T03:44:24.006Z,23.15
2024-02-19T03:45:23.992Z,23.80
2024-02-19T03:46:24.015Z,22.83
2024-02-19T03:47:23.971Z,23.15
2024-02-19T03:48:24.239Z,23.48
2024-02-19T03:49:24.024Z,23.48
2024-02-19T03:50:23.935Z,23.48
2024-02-19T03:51:24.062Z,23.15
2024-02-19T03:52:23.975Z,23.48
2024-02-19T03:53:23.894Z,23.48
2024-02-19T03:54:23.906Z,23.48
2024-02-19T03:55:23.880Z,23.48
2024-02-19T03:56:23.852Z,23.48
2024-02-19T03:57:23.967Z,23.48
2024-02-19T03:58:23.911Z,23.48
2024-02-19T03:59:23.896Z,23.15
2024-02-19T04:00:23.824Z,23.15
2024-02-19T04:01:23.855Z,23.48
2024-02-19T04:02:23.806Z,23.48
2024-02-19T04:03:23.780Z,22.83
2024-02-19T04:04:23.869Z,22.51
2024-02-19T04:05:24.144Z,23.80
2024-02-19T04:06:23.777Z,23.48
2024-02-19T04:07:23.733Z,23.48
2024-02-19T04:08:23.698Z,23.48
2024-02-19T04:09:23.694Z,23.48
2024-02-19T04:10:23.753Z,23.48
2024-02-19T04:11:23.704Z,23.80
2024-02-19T04:12:23.658Z,23.15
2024-02-19T04:13:23.674Z,23.48
2024-02-19T04:14:23.616Z,24.12
2024-02-19T04:15:23.594Z,23.48
2024-02-19T04:16:23.697Z,23.48
2024-02-19T04:17:23.616Z,23.48
2024-02-19T04:18:23.786Z,23.48
2024-02-19T04:19:23.568Z,23.15
2024-02-19T04:20:23.547Z,22.83
2024-02-19T04:21:23.507Z,23.80
2024-02-19T04:22:23.566Z,23.80
2024-02-19T04:23:23.498Z,23.48
2024-02-19T04:24:23.498Z,23.80
2024-02-19T04:25:23.557Z,23.80
2024-02-19T04:26:23.450Z,23.48
2024-02-19T04:27:23.573Z,23.15
2024-02-19T04:28:23.502Z,22.83
2024-02-19T04:29:23.422Z,22.19
2024-02-19T04:30:23.412Z,22.51
2024-02-19T04:31:23.459Z,23.48
2024-02-19T04:32:23.376Z,23.15
2024-02-19T04:33:23.752Z,22.83
2024-02-19T04:34:23.452Z,23.15
2024-02-19T04:35:23.326Z,23.48
2024-02-19T04:36:23.321Z,23.80
2024-02-19T04:37:23.377Z,23.80
2024-02-19T04:38:23.304Z,23.80
2024-02-19T04:39:23.319Z,23.48
2024-02-19T04:40:23.377Z,23.48
2024-02-19T04:41:23.253Z,23.48
2024-02-19T04:42:23.236Z,23.48
2024-02-19T04:43:23.255Z,23.80
2024-02-19T04:44:23.237Z,23.48
2024-02-19T04:45:23.237Z,23.48
2024-02-19T04:46:23.231Z,23.15
2024-02-19T04:47:23.169Z,23.15
2024-02-19T04:48:23.167Z,23.80
2024-02-19T04:49:23.210Z,23.48
2024-02-19T04:50:23.198Z,24.12
2024-02-19T04:51:23.110Z,23.80
2024-02-19T04:52:23.162Z,23.48
2024-02-19T04:53:23.097Z,23.48
2024-02-19T04:54:23.086Z,23.15
2024-02-19T04:55:23.096Z,23.48
2024-02-19T04:56:23.056Z,23.15
2024-02-19T04:57:23.035Z,23.48
2024-02-19T04:58:23.058Z,22.83
2024-02-19T04:59:23.023Z,22.19
2024-02-19T05:00:23.016Z,24.44
2024-02-19T05:01:23.068Z,23.48
2024-02-19T05:02:22.975Z,23.48
2024-02-19T05:03:22.977Z,23.15
2024-02-19T05:04:23.124Z,23.80
2024-02-19T05:05:22.993Z,24.12
2024-02-19T05:06:22.959Z,23.80
2024-02-19T05:07:23.231Z,24.44
2024-02-19T05:08:22.903Z,23.48
2024-02-19T05:09:22.880Z,23.80
2024-02-19T05:10:22.953Z,23.80
2024-02-19T05:11:22.923Z,23.48
2024-02-19T05:12:22.858Z,23.48
2024-02-19T05:13:22.858Z,23.15
2024-02-19T05:14:22.813Z,23.48
2024-02-19T05:15:22.815Z,24.12
2024-02-19T05:16:22.874Z,23.48
2024-02-19T05:17:22.779Z,23.15
2024-02-19T05:18:22.849Z,23.80
2024-02-19T05:19:23.126Z,23.48
2024-02-19T05:20:22.746Z,23.48
2024-02-19T05:21:22.728Z,23.80
2024-02-19T05:22:22.770Z,23.48
2024-02-19T05:23:22.687Z,23.15
2024-02-19T05:24:22.703Z,24.12
2024-02-19T05:25:22.736Z,23.48
2024-02-19T05:26:22.683Z,23.48
2024-02-19T05:27:22.634Z,23.80
2024-02-19T05:28:22.698Z,22.83
2024-02-19T05:29:22.627Z,23.80
2024-02-19T05:30:22.599Z,23.48
2024-02-19T05:31:22.663Z,23.80
2024-02-19T05:32:22.588Z,24.12
2024-02-19T05:33:22.582Z,23.48
2024-02-19T05:34:22.654Z,23.15
2024-02-19T05:35:22.589Z,22.83
2024-02-19T05:36:22.523Z,24.44
2024-02-19T05:37:22.594Z,23.15
2024-02-19T05:38:22.535Z,24.12
2024-02-19T05:39:22.496Z,23.80
2024-02-19T05:40:22.598Z,24.77
2024-02-19T05:41:22.455Z,24.44
2024-02-19T05:42:22.445Z,23.15
2024-02-19T05:43:22.515Z,23.15
2024-02-19T05:44:22.419Z,23.48
2024-02-19T05:45:22.412Z,23.48
2024-02-19T05:46:22.813Z,23.15
2024-02-19T05:47:22.410Z,23.48
2024-02-19T05:48:22.436Z,23.15
2024-02-19T05:49:22.436Z,24.12
2024-02-19T05:50:22.378Z,23.48
2024-02-19T05:51:22.363Z,23.15
2024-02-19T05:52:22.389Z,23.15
2024-02-19T05:53:22.298Z,23.15
2024-02-19T05:54:22.282Z,23.15
2024-02-19T05:55:22.392Z,23.15
2024-02-19T05:56:22.273Z,23.80
2024-02-19T05:57:22.257Z,22.19
2024-02-19T05:58:22.361Z,24.12
2024-02-19T05:59:22.206Z,22.83
2024-02-19T06:00:22.209Z,23.15
2024-02-19T06:01:22.390Z,23.48
2024-02-19T06:02:22.379Z,23.15
2024-02-19T06:03:22.158Z,22.83
2024-02-19T06:04:22.245Z,22.83
2024-02-19T06:05:22.189Z,22.83
2024-02-19T06:06:22.173Z,23.48
2024-02-19T06:07:22.166Z,22.83
2024-02-19T06:08:22.117Z,23.15
2024-02-19T06:09:22.082Z,22.51
2024-02-19T06:10:22.119Z,22.83
2024-02-19T06:11:22.193Z,23.48
2024-02-19T06:12:22.229Z,22.51
2024-02-19T06:13:22.089Z,22.51
2024-02-19T06:14:22.014Z,22.19
2024-02-19T06:15:21.997Z,22.51
2024-02-19T06:16:22.138Z,22.51
2024-02-19T06:17:21.979Z,22.51
2024-02-19T06:18:22.271Z,22.51
2024-02-19T06:19:22.302Z,22.19
2024-02-19T06:20:21.978Z,22.19
2024-02-19T06:21:21.926Z,22.19
2024-02-19T06:22:22.031Z,22.19
2024-02-19T06:23:22.010Z,21.87
2024-02-19T06:24:22.245Z,22.19
2024-02-19T06:25:21.957Z,22.19
2024-02-19T06:26:21.918Z,22.19
2024-02-19T06:27:21.890Z,20.58
2024-02-19T06:28:23.439Z,22.19
2024-02-19T06:29:22.212Z,20.90
2024-02-19T06:30:23.104Z,22.19
2024-02-19T06:31:21.858Z,22.19
2024-02-19T06:32:21.800Z,21.87
2024-02-19T06:33:22.030Z,21.87
2024-02-19T06:34:23.875Z,22.51
2024-02-19T06:35:21.816Z,23.48
2024-02-19T06:36:22.549Z,22.19
2024-02-19T06:37:31.331Z,22.51
2024-02-19T06:38:22.266Z,22.19
2024-02-19T06:39:21.790Z,22.51
2024-02-19T06:40:21.872Z,21.87
2024-02-19T06:41:21.864Z,22.19
2024-02-19T06:42:21.712Z,22.51
2024-02-19T06:43:22.259Z,22.19
2024-02-19T06:44:21.694Z,22.19
2024-02-19T06:45:24.463Z,22.19
2024-02-19T06:46:21.895Z,21.87
2024-02-19T06:47:21.654Z,22.19
2024-02-19T06:48:21.691Z,21.22
2024-02-19T06:52:19.913Z,22.51
2024-02-19T06:53:30.297Z,22.51
2024-02-19T06:54:04.017Z,22.19
2024-02-19T06:55:00.377Z,22.19
2024-02-19T06:56:12.285Z,20.90
2024-02-19T06:57:18.542Z,22.51
2024-02-19T06:57:58.398Z,22.19
2024-02-19T06:59:15.283Z,22.19
2024-02-19T07:00:00.528Z,22.19
2024-02-19T07:01:22.495Z,22.51
2024-02-19T07:02:08.359Z,22.19
2024-02-19T07:02:57.905Z,22.19
2024-02-19T07:04:26.120Z,21.87
2024-02-19T07:05:05.629Z,21.22
2024-02-19T07:06:02.106Z,22.19
2024-02-19T07:06:55.401Z,21.54
2024-02-19T07:07:56.563Z,22.51
2024-02-19T07:09:14.684Z,22.83
2024-02-19T07:09:47.397Z,21.87
2024-02-19T07:10:48.333Z,22.19
2024-02-19T07:11:47.087Z,22.19
2024-02-19T07:12:46.062Z,22.51
2024-02-19T07:13:48.694Z,21.87
2024-02-19T07:14:54.318Z,21.54
2024-02-19T07:19:41.857Z,22.19
2024-02-19T07:20:02.585Z,22.51
2024-02-19T07:21:06.312Z,21.22
2024-02-19T07:22:00.806Z,21.87
2024-02-19T07:22:58.224Z,22.19
2024-02-19T07:23:59.833Z,21.87
2024-02-19T07:25:06.186Z,21.87
2024-02-19T07:26:04.851Z,21.54
2024-02-19T07:26:58.964Z,20.90
2024-02-19T07:27:55.792Z,21.87
2024-02-19T07:28:59.179Z,22.51
2024-02-19T07:29:55.011Z,22.51
2024-02-19T07:30:57.578Z,22.19
2024-02-19T07:31:49.085Z,21.87
2024-02-19T07:32:57.856Z,21.87
2024-02-19T07:33:49.203Z,22.19
2024-02-19T07:34:49.175Z,22.19
2024-02-19T07:36:52.786Z,21.22
2024-02-19T07:37:30.190Z,22.19
2024-02-19T07:38:11.797Z,21.87
2024-02-19T07:39:18.071Z,21.87
2024-02-19T07:40:14.855Z,21.54
2024-02-19T07:41:14.996Z,21.87
2024-02-19T07:42:13.061Z,21.87
2024-02-19T07:43:17.924Z,22.19
2024-02-19T07:44:17.336Z,21.22
2024-02-19T07:45:14.841Z,21.87
2024-02-19T07:46:28.357Z,22.51
2024-02-19T07:47:23.819Z,21.87
2024-02-19T07:48:20.198Z,21.87
2024-02-19T07:49:16.059Z,22.19
2024-02-19T07:50:17.351Z,21.87
2024-02-19T07:51:16.085Z,21.87
2024-02-19T07:52:15.391Z,21.87
2024-02-19T07:53:14.416Z,22.19
2024-02-19T07:54:16.144Z,21.54
2024-02-19T07:55:12.855Z,21.87
2024-02-19T07:56:16.025Z,21.87
2024-02-19T07:57:14.307Z,21.54
2024-02-19T08:03:53.714Z,21.87
2024-02-19T08:05:10.619Z,21.87
2024-02-19T08:05:57.745Z,21.87
2024-02-19T08:06:50.994Z,22.19
2024-02-19T08:07:56.840Z,21.87
2024-02-19T08:08:54.460Z,21.87
2024-02-19T08:09:54.184Z,21.22
2024-02-19T08:11:01.740Z,21.87
2024-02-19T08:11:41.486Z,21.87
2024-02-19T08:12:49.180Z,21.54
2024-02-19T08:13:41.416Z,21.22
2024-02-19T08:14:41.317Z,22.19
2024-02-19T08:15:41.304Z,22.19
2024-02-19T08:16:43.255Z,22.19
2024-02-19T08:17:41.506Z,21.87
2024-02-19T08:18:41.340Z,21.87
2024-02-19T08:19:41.256Z,22.19
2024-02-19T08:20:41.254Z,21.87
2024-02-19T08:21:41.275Z,22.51
2024-02-19T08:22:43.807Z,21.87
2024-02-19T08:23:41.204Z,22.51
2024-02-19T08:24:41.763Z,22.83
2024-02-19T08:25:41.317Z,21.54
2024-02-19T08:26:41.363Z,22.51
2024-02-19T08:27:57.516Z,22.51
2024-02-19T08:28:41.125Z,22.19
2024-02-19T08:29:41.224Z,21.87
2024-02-19T08:30:41.247Z,21.87
2024-02-19T08:31:41.251Z,22.19
2024-02-19T08:32:44.165Z,21.87
2024-02-19T08:33:41.138Z,21.87
2024-02-19T08:34:41.669Z,20.58
2024-02-19T08:35:45.856Z,21.87
2024-02-19T08:36:41.143Z,22.19
2024-02-19T08:37:41.043Z,22.19
2024-02-19T08:40:44.673Z,21.87
2024-02-19T08:43:05.832Z,21.87
2024-02-19T08:44:02.976Z,21.87
2024-02-19T08:45:13.257Z,22.19
2024-02-19T08:46:30.439Z,21.87
2024-02-19T08:46:52.254Z,22.51
2024-02-19T08:47:59.157Z,21.22
2024-02-19T08:48:54.406Z,22.19
2024-02-19T08:49:54.061Z,21.22
2024-02-19T08:51:14.711Z,21.87
2024-02-19T08:51:52.804Z,22.83
2024-02-19T08:52:51.738Z,21.87
2024-02-19T08:53:59.299Z,23.15
2024-02-19T08:54:57.168Z,22.19
2024-02-19T08:56:00.584Z,22.83
2024-02-19T08:56:57.807Z,22.19
2024-02-19T08:57:58.277Z,22.51
2024-02-19T08:58:48.857Z,22.19
2024-02-19T08:59:55.463Z,22.19
2024-02-19T09:01:00.286Z,22.19
2024-02-19T09:02:00.835Z,22.51
2024-02-19T09:02:49.217Z,21.87
2024-02-19T09:03:56.598Z,22.19
2024-02-19T09:05:30.760Z,22.51
2024-02-19T09:06:02.144Z,22.19
2024-02-19T09:07:59.306Z,22.51
2024-02-19T09:09:41.803Z,22.51
2024-02-19T09:23:19.780Z,22.19
2024-02-19T09:24:20.113Z,22.51
2024-02-19T09:25:20.039Z,22.83
2024-02-19T09:28:53.593Z,21.22
2024-02-19T09:29:42.574Z,22.19
2024-02-19T09:30:46.630Z,21.54
2024-02-19T09:31:46.618Z,22.83
2024-02-19T09:32:50.186Z,22.51
2024-02-19T09:33:59.056Z,23.15
2024-02-19T09:34:41.441Z,22.83
2024-02-19T09:36:25.307Z,22.51
2024-02-19T09:36:53.081Z,22.51
2024-02-19T09:38:00.066Z,22.83
2024-02-19T09:39:14.367Z,22.51
2024-02-19T09:40:03.034Z,23.15
2024-02-19T09:43:24.753Z,22.83
2024-02-19T09:44:05.539Z,21.22
2024-02-19T09:45:07.958Z,22.51
2024-02-19T09:46:15.208Z,22.83
2024-02-19T09:48:51.299Z,22.83
2024-02-19T09:49:24.732Z,22.51
2024-02-19T09:50:24.101Z,22.19
2024-02-19T09:51:36.771Z,22.51
2024-02-19T09:52:27.836Z,22.51
2024-02-19T09:53:55.042Z,22.51
2024-02-19T09:54:25.009Z,22.19
2024-02-19T10:07:07.508Z,22.19
2024-02-19T10:07:15.790Z,22.83
2024-02-19T10:08:36.762Z,22.51
2024-02-19T10:09:17.784Z,22.19
2024-02-19T10:10:25.302Z,22.51
2024-02-19T10:11:31.765Z,22.51
2024-02-19T10:12:26.145Z,22.83
2024-02-19T10:13:14.548Z,22.19
2024-02-19T10:14:13.660Z,22.51
2024-02-19T10:15:13.639Z,22.51
2024-02-19T10:16:13.815Z,23.15
2024-02-19T10:17:13.917Z,22.19
2024-02-19T10:18:14.231Z,22.51
2024-02-19T10:19:14.280Z,21.87
2024-02-19T10:20:13.589Z,22.51
2024-02-19T10:21:14.053Z,22.51
2024-02-19T10:22:13.599Z,22.83
2024-02-19T10:23:15.509Z,22.83
2024-02-19T10:24:15.766Z,22.19
2024-02-19T10:25:20.203Z,23.15
2024-02-19T10:26:13.551Z,22.51
2024-02-19T10:27:13.528Z,22.51
2024-02-19T10:28:13.722Z,23.48
2024-02-19T10:29:21.720Z,22.83
2024-02-19T10:30:27.921Z,21.87
2024-02-19T10:36:51.856Z,22.83
2024-02-19T10:39:34.639Z,22.83
2024-02-19T10:40:14.921Z,22.83
2024-02-19T10:45:28.769Z,22.83
2024-02-19T10:45:57.818Z,22.83
2024-02-19T10:46:58.162Z,22.83
2024-02-19T10:47:45.625Z,22.51
2024-02-19T10:49:04.028Z,22.83
2024-02-19T10:51:37.831Z,22.51
2024-02-19T10:52:00.461Z,22.51
2024-02-19T10:53:02.503Z,22.83
2024-02-19T10:55:09.606Z,22.51
2024-02-19T10:55:53.249Z,22.51
2024-02-19T10:56:32.278Z,22.51
2024-02-19T10:58:03.081Z,22.83
2024-02-19T10:58:35.329Z,23.48
2024-02-19T10:59:27.935Z,22.83
2024-02-19T11:00:36.764Z,22.51
2024-02-19T11:01:30.201Z,22.51
2024-02-19T11:02:31.081Z,22.83
2024-02-19T11:03:34.498Z,22.83
2024-02-19T11:04:34.813Z,22.19
2024-02-19T11:05:33.255Z,22.51
2024-02-19T11:06:45.014Z,22.83
2024-02-19T11:07:35.259Z,22.51
2024-02-19T11:08:23.938Z,22.83
2024-02-19T11:09:29.007Z,22.51
2024-02-19T11:10:24.326Z,22.19
2024-02-19T11:11:24.817Z,23.80
2024-02-19T11:12:56.669Z,22.51
2024-02-19T11:13:52.448Z,22.51
2024-02-19T11:14:36.777Z,22.19
2024-02-19T11:16:01.666Z,22.83
2024-02-19T11:16:28.341Z,22.83
2024-02-19T11:17:34.062Z,23.15
2024-02-19T11:18:21.541Z,22.51
2024-02-19T11:19:22.449Z,23.15
2024-02-19T11:20:21.228Z,22.51
2024-02-19T11:21:19.039Z,23.15
2024-02-19T11:22:21.603Z,22.83
2024-02-19T11:23:22.063Z,22.83
2024-02-19T11:24:19.905Z,21.22
2024-02-19T11:25:20.455Z,22.51
2024-02-19T11:26:14.719Z,22.83
2024-02-19T11:30:06.505Z,22.19
2024-02-19T11:30:36.037Z,22.51
2024-02-19T11:31:27.715Z,23.15
2024-02-19T11:34:42.593Z,22.51
2024-02-19T11:35:02.006Z,22.51
2024-02-19T11:35:54.792Z,22.19
2024-02-19T11:37:09.923Z,22.51
2024-02-19T11:38:23.783Z,23.15
2024-02-19T11:39:05.127Z,22.19
2024-02-19T11:41:42.134Z,22.51
2024-02-19T11:42:01.295Z,22.83
2024-02-19T11:43:02.179Z,22.51
2024-02-19T11:44:03.982Z,22.83
2024-02-19T11:45:00.280Z,22.83
2024-02-19T11:46:02.196Z,22.19
2024-02-19T11:47:07.781Z,22.83
2024-02-19T11:48:02.031Z,22.83
2024-02-19T11:49:02.028Z,22.83
2024-02-19T11:49:51.849Z,22.83
2024-02-19T11:50:49.928Z,21.22
2024-02-19T11:51:57.440Z,22.51
2024-02-19T11:52:54.918Z,22.83
2024-02-19T11:54:03.603Z,22.19
2024-02-19T11:55:08.837Z,22.19
2024-02-19T11:56:07.147Z,22.83
2024-02-19T11:56:49.891Z,22.83
2024-02-19T11:57:49.945Z,21.87
2024-02-19T11:58:49.957Z,22.83
2024-02-19T11:59:49.883Z,22.51
2024-02-19T12:00:49.982Z,22.51
2024-02-19T12:01:50.010Z,21.87
2024-02-19T12:02:55.109Z,22.19
2024-02-19T12:03:55.297Z,22.19
2024-02-19T12:04:50.546Z,22.19
2024-02-19T12:05:50.952Z,22.51
2024-02-19T12:06:49.756Z,22.19
2024-02-19T12:07:49.798Z,22.51
2024-02-19T12:08:49.697Z,21.54
2024-02-19T12:09:49.715Z,22.51
2024-02-19T12:10:49.711Z,22.51
2024-02-19T12:11:49.671Z,21.87
2024-02-19T12:12:49.655Z,22.83
2024-02-19T12:13:49.867Z,22.19
2024-02-19T12:14:50.062Z,22.51
2024-02-19T12:15:49.637Z,22.83
2024-02-19T12:16:49.586Z,22.19
2024-02-19T12:17:49.937Z,22.19
2024-02-19T12:18:49.707Z,22.51
2024-02-19T12:19:52.065Z,22.19
2024-02-19T12:21:19.742Z,22.51
2024-02-19T12:22:16.827Z,22.51
2024-02-19T12:23:08.315Z,22.51
2024-02-19T12:24:01.696Z,22.83
2024-02-19T12:25:04.687Z,22.51
2024-02-19T12:25:49.484Z,22.51
2024-02-19T12:26:50.442Z,23.15
2024-02-19T12:27:52.767Z,22.19
2024-02-19T12:28:49.442Z,22.19
2024-02-19T12:29:50.697Z,22.83
2024-02-19T12:30:49.472Z,22.51
2024-02-19T12:31:49.386Z,22.83
2024-02-19T12:32:49.616Z,22.51
2024-02-19T12:33:50.370Z,22.51
2024-02-19T12:34:49.444Z,22.83
2024-02-19T12:35:49.581Z,22.83
2024-02-19T12:36:49.481Z,22.83
2024-02-19T12:37:49.533Z,22.51
2024-02-19T12:38:49.853Z,22.51
2024-02-19T12:39:49.322Z,22.51
2024-02-19T12:40:49.301Z,22.51
2024-02-19T12:41:49.438Z,22.83
2024-02-19T12:42:49.272Z,22.83
2024-02-19T12:43:49.769Z,22.83
2024-02-19T12:44:49.250Z,22.51
2024-02-19T12:45:50.075Z,23.15
2024-02-19T12:46:50.104Z,22.83
2024-02-19T12:47:49.612Z,23.15
2024-02-19T12:48:49.304Z,22.51
2024-02-19T12:49:49.312Z,23.48
2024-02-19T12:50:49.307Z,22.51
2024-02-19T12:51:49.305Z,22.51
2024-02-19T12:52:49.206Z,22.51
2024-02-19T12:53:49.143Z,23.15
2024-02-19T12:54:49.155Z,23.15
2024-02-19T12:55:50.287Z,22.51
2024-02-19T12:56:50.459Z,22.83
2024-02-19T12:57:49.192Z,23.15
2024-02-19T12:58:49.322Z,22.83
2024-02-19T12:59:49.098Z,22.83
2024-02-19T13:01:09.671Z,23.48
2024-02-19T13:02:00.766Z,22.83
2024-02-19T13:02:50.943Z,23.15
2024-02-19T13:03:49.915Z,22.51
2024-02-19T13:04:49.117Z,22.83
2024-02-19T13:05:49.297Z,22.19
2024-02-19T13:06:50.403Z,22.51
2024-02-19T13:07:49.482Z,22.51
2024-02-19T13:08:49.415Z,22.83
2024-02-19T13:09:49.059Z,22.51
2024-02-19T13:10:48.876Z,23.15
2024-02-19T13:11:48.861Z,22.83
2024-02-19T13:12:48.943Z,22.83
2024-02-19T13:13:48.902Z,22.83
2024-02-19T13:14:48.809Z,23.48
2024-02-19T13:15:50.671Z,23.48
2024-02-19T13:16:54.755Z,22.83
2024-02-19T13:17:48.835Z,22.51
2024-02-19T13:18:48.858Z,22.83
2024-02-19T13:19:48.842Z,22.51
2024-02-19T13:20:48.718Z,22.19
2024-02-19T13:21:48.779Z,22.83
2024-02-19T13:22:48.726Z,22.83
2024-02-19T13:23:48.982Z,22.51
2024-02-19T13:24:48.709Z,22.51
2024-02-19T13:25:48.678Z,23.15
2024-02-19T13:26:50.578Z,22.19
2024-02-19T13:27:48.669Z,22.83
2024-02-19T13:28:48.612Z,22.51
2024-02-19T13:29:48.614Z,22.19
2024-02-19T13:30:48.659Z,22.83
2024-02-19T13:31:49.404Z,22.19
2024-02-19T13:32:48.567Z,22.83
2024-02-19T13:33:48.744Z,21.54
2024-02-19T13:34:48.610Z,21.87
2024-02-19T13:35:48.598Z,22.51
2024-02-19T13:36:50.123Z,22.83
2024-02-19T13:37:48.583Z,22.19
2024-02-19T13:38:48.490Z,22.51
2024-02-19T13:39:48.575Z,22.51
2024-02-19T13:40:48.531Z,22.83
2024-02-19T13:41:48.442Z,21.22
2024-02-19T13:42:48.426Z,20.90
2024-02-19T13:43:48.455Z,22.19
2024-02-19T13:44:48.404Z,22.19
2024-02-19T13:45:48.816Z,22.19
2024-02-19T13:46:48.501Z,21.54
2024-02-19T13:47:48.907Z,22.19
2024-02-19T13:48:48.462Z,22.19
2024-02-19T13:49:48.390Z,21.87
2024-02-19T13:50:48.325Z,22.51
2024-02-19T13:51:48.385Z,22.19
2024-02-19T13:52:48.344Z,21.87
2024-02-19T13:53:48.281Z,21.87
2024-02-19T13:54:49.721Z,21.87